createdAt,value
2018-12-27T00:01:11.534Z,1.42
2018-12-27T00:03:37.902Z,2.27
2018-12-27T00:06:04.249Z,2.27
2018-12-27T00:08:30.706Z,2.42
2018-12-27T00:10:57.174Z,1.20
2018-12-27T00:13:23.645Z,1.50
2018-12-27T00:15:50.193Z,1.75
2018-12-27T00:18:16.530Z,1.27
2018-12-27T00:20:42.773Z,1.70
2018-12-27T00:23:09.377Z,1.47
2018-12-27T00:25:35.821Z,1.82
2018-12-27T00:28:02.269Z,2.77
2018-12-27T00:30:28.657Z,2.02
2018-12-27T00:33:02.945Z,1.27
2018-12-27T00:35:23.113Z,1.30
2018-12-27T00:37:49.495Z,1.20
2018-12-27T00:40:15.737Z,1.40
2018-12-27T00:42:41.997Z,1.20
2018-12-27T00:45:08.463Z,1.10
2018-12-27T00:47:34.742Z,2.83
2018-12-27T00:50:01.162Z,1.22
2018-12-27T00:52:27.616Z,1.67
2018-12-27T00:54:53.857Z,3.02
2018-12-27T00:57:20.101Z,1.72
2018-12-27T00:59:46.477Z,1.30
2018-12-27T01:02:12.727Z,1.35
2018-12-27T01:04:38.993Z,1.65
2018-12-27T01:07:05.791Z,2.65
2018-12-27T01:09:32.034Z,1.62
2018-12-27T01:11:58.281Z,1.87
2018-12-27T01:14:24.725Z,2.12
2018-12-27T01:16:51.006Z,2.20
2018-12-27T01:19:17.377Z,2.55
2018-12-27T01:21:43.733Z,2.50
2018-12-27T01:24:09.989Z,1.70
2018-12-27T01:26:36.237Z,1.92
2018-12-27T01:29:02.641Z,2.30
2018-12-27T01:31:28.878Z,2.50
2018-12-27T01:33:55.185Z,2.50
2018-12-27T01:36:22.432Z,1.95
2018-12-27T01:38:48.678Z,1.57
2018-12-27T01:41:14.949Z,1.70
2018-12-27T01:43:41.389Z,1.30
2018-12-27T01:46:07.629Z,1.95
2018-12-27T01:48:33.878Z,1.72
2018-12-27T01:51:00.329Z,1.80
2018-12-27T01:53:26.573Z,2.40
2018-12-27T01:55:52.873Z,1.52
2018-12-27T01:58:19.306Z,1.70
2018-12-27T02:00:45.562Z,6.33
2018-12-27T02:03:11.818Z,2.12
2018-12-27T02:05:38.170Z,1.77
2018-12-27T02:08:04.417Z,1.82
2018-12-27T02:10:30.669Z,1.47
2018-12-27T02:12:56.954Z,1.98
2018-12-27T02:15:23.202Z,2.90
2018-12-27T02:17:49.450Z,4.33
2018-12-27T02:20:15.825Z,2.12
2018-12-27T02:22:42.057Z,3.77
2018-12-27T02:25:08.311Z,3.05
2018-12-27T02:27:34.678Z,1.90
2018-12-27T02:30:00.935Z,2.22
2018-12-27T02:32:27.177Z,2.43
2018-12-27T02:34:53.666Z,1.52
2018-12-27T02:37:20.138Z,2.22
2018-12-27T02:39:46.389Z,5.73
2018-12-27T02:42:12.710Z,2.20
2018-12-27T02:44:38.961Z,1.65
2018-12-27T02:47:05.210Z,1.45
2018-12-27T02:49:31.973Z,1.75
2018-12-27T02:51:58.331Z,4.20
2018-12-27T02:54:24.569Z,1.70
2018-12-27T02:56:50.857Z,1.70
2018-12-27T02:59:17.114Z,1.67
2018-12-27T03:01:43.354Z,1.80
2018-12-27T03:04:09.714Z,1.73
2018-12-27T03:06:35.960Z,1.60
2018-12-27T03:09:02.620Z,2.08
2018-12-27T03:11:28.885Z,3.22
2018-12-27T03:13:55.149Z,3.30
2018-12-27T03:16:21.400Z,2.45
2018-12-27T03:18:47.892Z,2.03
2018-12-27T03:21:14.253Z,2.77
2018-12-27T03:23:40.505Z,1.57
2018-12-27T03:26:06.765Z,1.70
2018-12-27T03:28:33.013Z,2.10
2018-12-27T03:30:59.283Z,2.70
2018-12-27T03:33:25.535Z,5.80
2018-12-27T03:35:51.792Z,3.67
2018-12-27T03:38:18.073Z,3.23
2018-12-27T03:40:44.478Z,3.55
2018-12-27T03:43:10.730Z,3.73
2018-12-27T03:45:36.984Z,3.13
2018-12-27T03:48:03.249Z,2.93
2018-12-27T03:50:29.494Z,4.33
2018-12-27T03:52:55.842Z,1.53
2018-12-27T03:55:22.106Z,2.70
2018-12-27T03:57:48.593Z,2.47
2018-12-27T04:00:14.819Z,1.67
2018-12-27T04:02:41.334Z,2.17
2018-12-27T04:05:07.579Z,1.90
2018-12-27T04:07:33.817Z,2.20
2018-12-27T04:10:00.243Z,2.57
2018-12-27T04:12:26.460Z,3.63
2018-12-27T04:14:52.809Z,3.30
2018-12-27T04:17:19.398Z,2.00
2018-12-27T04:19:45.757Z,2.52
2018-12-27T04:22:12.265Z,3.47
2018-12-27T04:24:39.266Z,4.10
2018-12-27T04:27:05.603Z,3.03
2018-12-27T04:29:32.061Z,4.63
2018-12-27T04:31:59.011Z,2.05
2018-12-27T04:34:25.657Z,1.70
2018-12-27T04:36:53.022Z,3.53
2018-12-27T04:39:19.501Z,3.23
2018-12-27T04:41:46.349Z,2.30
2018-12-27T04:44:13.058Z,3.57
2018-12-27T04:46:39.543Z,2.90
2018-12-27T04:49:05.973Z,3.98
2018-12-27T04:51:32.221Z,4.70
2018-12-27T04:53:58.706Z,3.30
2018-12-27T04:56:25.033Z,2.07
2018-12-27T04:58:51.389Z,3.33
2018-12-27T05:01:17.854Z,1.87
2018-12-27T05:03:44.222Z,2.63
2018-12-27T05:06:10.557Z,3.03
2018-12-27T05:08:37.058Z,2.35
2018-12-27T05:11:03.307Z,3.20
2018-12-27T05:13:29.749Z,4.80
2018-12-27T05:15:56.193Z,2.77
2018-12-27T05:18:22.629Z,3.27
2018-12-27T05:20:49.192Z,2.93
2018-12-27T05:23:15.749Z,2.23
2018-12-27T05:25:42.194Z,3.00
2018-12-27T05:28:08.449Z,2.50
2018-12-27T05:30:35.117Z,5.13
2018-12-27T05:33:01.365Z,3.37
2018-12-27T05:35:27.722Z,4.30
2018-12-27T05:37:54.145Z,3.37
2018-12-27T05:40:20.593Z,2.80
2018-12-27T05:42:46.984Z,2.63
2018-12-27T05:45:13.445Z,3.23
2018-12-27T05:47:39.886Z,4.47
2018-12-27T05:50:06.341Z,2.27
2018-12-27T05:52:32.835Z,2.83
2018-12-27T05:54:59.209Z,3.70
2018-12-27T05:57:25.665Z,2.53
2018-12-27T05:59:52.133Z,3.67
2018-12-27T06:02:18.478Z,4.47
2018-12-27T06:04:44.721Z,2.67
2018-12-27T06:07:10.993Z,2.00
2018-12-27T06:09:37.272Z,2.27
2018-12-27T06:12:03.714Z,3.40
2018-12-27T06:14:30.261Z,4.33
2018-12-27T06:16:56.613Z,3.40
2018-12-27T06:19:22.858Z,2.70
2018-12-27T06:21:49.314Z,4.03
2018-12-27T06:24:15.646Z,4.00
2018-12-27T06:26:41.902Z,2.73
2018-12-27T06:29:08.349Z,3.10
2018-12-27T06:31:34.703Z,2.07
2018-12-27T06:34:01.150Z,2.60
2018-12-27T06:36:27.733Z,3.33
2018-12-27T06:38:54.226Z,2.60
2018-12-27T06:41:20.685Z,4.27
2018-12-27T06:43:47.258Z,2.70
2018-12-27T06:46:13.626Z,2.93
2018-12-27T06:48:39.977Z,3.93
2018-12-27T06:51:06.541Z,2.40
2018-12-27T06:53:32.895Z,3.63
2018-12-27T06:55:59.150Z,2.50
2018-12-27T06:58:26.050Z,3.43
2018-12-27T07:00:52.294Z,4.43
2018-12-27T07:03:18.549Z,3.60
2018-12-27T07:05:44.905Z,2.60
2018-12-27T07:08:11.402Z,2.67
2018-12-27T07:10:37.862Z,4.57
2018-12-27T07:13:04.242Z,2.83
2018-12-27T07:15:30.573Z,2.83
2018-12-27T07:17:57.030Z,3.67
2018-12-27T07:20:23.327Z,3.17
2018-12-27T07:22:49.770Z,3.03
2018-12-27T07:25:16.014Z,2.30
2018-12-27T07:27:42.378Z,4.07
2018-12-27T07:30:08.925Z,2.57
2018-12-27T07:32:35.378Z,2.07
2018-12-27T07:35:02.039Z,3.50
2018-12-27T07:37:28.373Z,3.17
2018-12-27T07:39:54.689Z,2.50
2018-12-27T07:42:21.296Z,4.73
2018-12-27T07:44:47.526Z,4.27
2018-12-27T07:47:13.974Z,4.13
2018-12-27T07:49:40.537Z,5.57
2018-12-27T07:52:07.002Z,3.87
2018-12-27T07:54:33.450Z,3.10
2018-12-27T07:56:59.812Z,3.17
2018-12-27T07:59:26.158Z,3.00
2018-12-27T08:01:52.525Z,2.17
2018-12-27T08:04:18.801Z,4.80
2018-12-27T08:06:45.150Z,3.50
2018-12-27T08:09:11.506Z,2.30
2018-12-27T08:11:37.757Z,3.40
2018-12-27T08:14:04.209Z,3.10
2018-12-27T08:16:30.657Z,2.37
2018-12-27T08:18:57.017Z,3.40
2018-12-27T08:21:23.456Z,2.57
2018-12-27T08:23:49.902Z,3.40
2018-12-27T08:26:16.402Z,3.90
2018-12-27T08:28:42.654Z,7.40
2018-12-27T08:31:09.006Z,5.17
2018-12-27T08:33:35.354Z,3.63
2018-12-27T08:36:01.820Z,3.87
2018-12-27T08:38:28.166Z,2.77
2018-12-27T08:40:54.699Z,4.00
2018-12-27T08:43:21.049Z,4.47
2018-12-27T08:45:47.397Z,3.00
2018-12-27T08:48:13.753Z,2.67
2018-12-27T08:50:40.202Z,2.30
2018-12-27T08:53:06.453Z,3.37
2018-12-27T08:55:32.906Z,3.43
2018-12-27T08:57:59.262Z,3.33
2018-12-27T09:00:25.738Z,3.40
2018-12-27T09:02:52.406Z,2.90
2018-12-27T09:05:19.249Z,6.43
2018-12-27T09:07:45.593Z,2.47
2018-12-27T09:10:12.077Z,4.43
2018-12-27T09:12:38.328Z,3.47
2018-12-27T09:15:04.878Z,2.53
2018-12-27T09:17:31.341Z,6.23
2018-12-27T09:19:57.579Z,5.27
2018-12-27T09:22:23.933Z,4.03
2018-12-27T09:24:50.557Z,2.83
2018-12-27T09:27:16.900Z,3.20
2018-12-27T09:29:43.161Z,6.03
2018-12-27T09:32:09.610Z,3.10
2018-12-27T09:34:35.850Z,3.20
2018-12-27T09:37:02.097Z,3.70
2018-12-27T09:39:28.646Z,3.03
2018-12-27T09:41:55.147Z,3.87
2018-12-27T09:44:21.401Z,4.83
2018-12-27T09:46:47.801Z,3.03
2018-12-27T09:49:14.154Z,3.30
2018-12-27T09:51:40.505Z,3.67
2018-12-27T09:54:06.859Z,3.37
2018-12-27T09:56:33.113Z,2.63
2018-12-27T09:58:59.361Z,2.47
2018-12-27T10:01:25.954Z,3.50
2018-12-27T10:03:52.578Z,4.10
2018-12-27T10:06:19.026Z,4.17
2018-12-27T10:08:45.610Z,4.00
2018-12-27T10:11:12.093Z,3.23
2018-12-27T10:13:38.346Z,3.37
2018-12-27T10:16:04.605Z,3.90
2018-12-27T10:18:30.949Z,4.27
2018-12-27T10:20:57.301Z,4.80
2018-12-27T10:23:23.789Z,4.30
2018-12-27T10:25:50.158Z,6.10
2018-12-27T10:28:16.521Z,3.60
2018-12-27T10:30:43.111Z,4.60
2018-12-27T10:33:09.541Z,3.67
2018-12-27T10:35:41.140Z,8.03
2018-12-27T10:38:04.194Z,3.33
2018-12-27T10:40:30.530Z,2.20
2018-12-27T10:42:57.038Z,2.55
2018-12-27T10:45:23.542Z,3.10
2018-12-27T10:47:50.063Z,4.67
2018-12-27T10:50:16.401Z,2.98
2018-12-27T10:52:42.901Z,5.58
2018-12-27T10:55:09.339Z,3.30
2018-12-27T10:57:35.795Z,4.87
2018-12-27T11:00:05.562Z,3.10
2018-12-27T11:02:31.894Z,3.52
2018-12-27T11:04:58.162Z,5.10
2018-12-27T11:07:24.909Z,3.23
2018-12-27T11:09:53.204Z,3.03
2018-12-27T11:12:19.425Z,4.67
2018-12-27T11:14:45.806Z,3.07
2018-12-27T11:17:12.110Z,4.70
2018-12-27T11:19:38.654Z,4.42
2018-12-27T11:22:05.218Z,4.72
2018-12-27T11:24:31.678Z,5.50
2018-12-27T11:26:58.051Z,4.43
2018-12-27T11:29:24.398Z,4.40
2018-12-27T11:31:50.845Z,5.17
2018-12-27T11:34:17.125Z,3.33
2018-12-27T11:36:43.515Z,5.37
2018-12-27T11:39:09.763Z,4.20
2018-12-27T11:41:36.211Z,3.47
2018-12-27T11:44:02.718Z,3.80
2018-12-27T11:46:29.006Z,4.10
2018-12-27T11:48:55.422Z,4.03
2018-12-27T11:51:22.090Z,5.53
2018-12-27T11:53:48.433Z,6.53
2018-12-27T11:56:14.791Z,4.00
2018-12-27T11:58:41.161Z,4.13
2018-12-27T12:01:07.521Z,3.67
2018-12-27T12:03:33.967Z,3.75
2018-12-27T12:06:03.384Z,5.20
2018-12-27T12:08:29.115Z,4.60
2018-12-27T12:10:55.461Z,5.87
2018-12-27T12:13:21.810Z,4.60
2018-12-27T12:15:48.266Z,3.90
2018-12-27T12:18:14.641Z,3.57
2018-12-27T12:20:41.209Z,4.40
2018-12-27T12:23:07.557Z,4.33
2018-12-27T12:25:34.006Z,5.87
2018-12-27T12:28:00.358Z,4.20
2018-12-27T12:30:26.715Z,3.83
2018-12-27T12:32:53.165Z,4.73
2018-12-27T12:35:19.509Z,4.33
2018-12-27T12:37:46.709Z,4.87
2018-12-27T12:40:13.094Z,4.13
2018-12-27T12:42:39.437Z,3.97
2018-12-27T12:45:05.918Z,3.57
2018-12-27T12:47:32.406Z,5.95
2018-12-27T12:49:58.882Z,4.33
2018-12-27T12:52:25.318Z,4.23
2018-12-27T12:54:51.678Z,6.47
2018-12-27T12:57:18.342Z,4.73
2018-12-27T12:59:44.673Z,6.70
2018-12-27T13:02:11.169Z,4.60
2018-12-27T13:04:37.802Z,6.23
2018-12-27T13:07:04.257Z,3.77
2018-12-27T13:09:30.818Z,4.97
2018-12-27T13:11:57.265Z,4.43
2018-12-27T13:14:23.606Z,3.37
2018-12-27T13:16:49.909Z,3.77
2018-12-27T13:19:18.269Z,3.37
2018-12-27T13:21:44.704Z,4.70
2018-12-27T13:24:11.057Z,3.67
2018-12-27T13:26:37.396Z,4.03
2018-12-27T13:29:03.737Z,4.47
2018-12-27T13:31:30.197Z,3.57
2018-12-27T13:33:56.739Z,3.57
2018-12-27T13:36:25.505Z,4.33
2018-12-27T13:38:51.376Z,4.33
2018-12-27T13:41:17.719Z,3.37
2018-12-27T13:43:44.066Z,4.22
2018-12-27T13:46:10.513Z,3.60
2018-12-27T13:48:36.979Z,5.17
2018-12-27T13:51:03.439Z,6.23
2018-12-27T13:53:29.805Z,3.30
2018-12-27T13:55:56.807Z,4.17
2018-12-27T13:58:23.186Z,3.97
2018-12-27T14:00:49.648Z,5.83
2018-12-27T14:03:16.110Z,4.00
2018-12-27T14:05:42.570Z,5.57
2018-12-27T14:08:09.632Z,3.40
2018-12-27T14:10:36.157Z,5.93
2018-12-27T14:13:02.595Z,4.10
2018-12-27T14:15:28.957Z,3.77
2018-12-27T14:17:55.419Z,3.87
2018-12-27T14:20:21.768Z,4.33
2018-12-27T14:22:48.154Z,4.73
2018-12-27T14:25:14.403Z,3.57
2018-12-27T14:27:40.865Z,4.83
2018-12-27T14:30:07.625Z,4.67
2018-12-27T14:32:34.194Z,3.87
2018-12-27T14:35:00.433Z,4.90
2018-12-27T14:37:26.907Z,6.47
2018-12-27T14:39:53.383Z,3.50
2018-12-27T14:42:19.725Z,4.20
2018-12-27T14:44:46.218Z,6.37
2018-12-27T14:47:12.937Z,5.17
2018-12-27T14:49:39.358Z,4.27
2018-12-27T14:52:05.878Z,4.12
2018-12-27T14:54:32.243Z,4.50
2018-12-27T14:56:59.115Z,4.10
2018-12-27T14:59:25.541Z,5.40
2018-12-27T15:01:52.281Z,5.07
2018-12-27T15:04:18.634Z,5.77
2018-12-27T15:06:47.948Z,4.30
2018-12-27T15:09:13.482Z,5.70
2018-12-27T15:11:39.927Z,4.07
2018-12-27T15:14:06.381Z,4.17
2018-12-27T15:16:32.641Z,5.63
2018-12-27T15:18:58.994Z,5.90
2018-12-27T15:21:25.351Z,6.50
2018-12-27T15:23:52.102Z,6.77
2018-12-27T15:26:18.389Z,3.90
2018-12-27T15:28:44.773Z,4.53
2018-12-27T15:31:11.459Z,4.53
2018-12-27T15:33:37.803Z,5.73
2018-12-27T15:36:04.275Z,4.97
2018-12-27T15:38:30.718Z,4.97
2018-12-27T15:40:57.075Z,5.87
2018-12-27T15:43:23.517Z,4.33
2018-12-27T15:45:49.875Z,5.87
2018-12-27T15:48:16.387Z,4.60
2018-12-27T15:50:42.786Z,6.20
2018-12-27T15:53:09.238Z,4.47
2018-12-27T15:55:35.676Z,4.87
2018-12-27T15:58:03.074Z,5.30
2018-12-27T16:00:29.526Z,5.27
2018-12-27T16:02:55.998Z,7.57
2018-12-27T16:05:22.378Z,4.90
2018-12-27T16:07:48.722Z,5.53
2018-12-27T16:10:15.069Z,4.97
2018-12-27T16:12:41.437Z,6.43
2018-12-27T16:15:08.135Z,4.27
2018-12-27T16:17:34.487Z,5.33
2018-12-27T16:20:00.874Z,5.63
2018-12-27T16:22:27.414Z,4.97
2018-12-27T16:24:54.183Z,4.30
2018-12-27T16:27:20.542Z,6.20
2018-12-27T16:29:47.666Z,6.07
2018-12-27T16:32:13.902Z,4.10
2018-12-27T16:34:40.391Z,5.63
2018-12-27T16:37:09.091Z,5.90
2018-12-27T16:39:34.978Z,4.43
2018-12-27T16:42:01.426Z,4.63
2018-12-27T16:44:27.890Z,7.83
2018-12-27T16:46:54.322Z,5.20
2018-12-27T16:49:20.734Z,4.87
2018-12-27T16:51:48.358Z,6.17
2018-12-27T16:54:14.809Z,5.33
2018-12-27T16:56:41.254Z,5.87
2018-12-27T16:59:07.857Z,7.67
2018-12-27T17:01:34.314Z,4.57
2018-12-27T17:04:00.758Z,4.60
2018-12-27T17:06:27.125Z,5.73
2018-12-27T17:08:53.562Z,8.83
2018-12-27T17:11:19.822Z,5.63
2018-12-27T17:13:46.265Z,5.60
2018-12-27T17:16:14.903Z,5.90
2018-12-27T17:18:41.237Z,6.03
2018-12-27T17:21:07.702Z,5.83
2018-12-27T17:23:34.073Z,6.03
2018-12-27T17:26:02.425Z,5.30
2018-12-27T17:28:28.882Z,7.13
2018-12-27T17:30:55.244Z,6.27
2018-12-27T17:33:21.684Z,5.37
2018-12-27T17:35:48.297Z,5.60
2018-12-27T17:38:14.774Z,6.50
2018-12-27T17:40:41.130Z,5.67
2018-12-27T17:43:07.678Z,6.97
2018-12-27T17:45:34.015Z,6.90
2018-12-27T17:48:00.262Z,5.70
2018-12-27T17:50:29.606Z,6.63
2018-12-27T17:52:55.965Z,6.97
2018-12-27T17:55:22.417Z,7.23
2018-12-27T17:57:48.893Z,6.90
2018-12-27T18:00:15.378Z,6.67
2018-12-27T18:02:41.822Z,5.67
2018-12-27T18:05:08.398Z,7.10
2018-12-27T18:07:34.737Z,6.27
2018-12-27T18:10:01.181Z,5.43
2018-12-27T18:12:27.538Z,5.33
2018-12-27T18:14:58.126Z,6.87
2018-12-27T18:17:24.374Z,6.10
2018-12-27T18:19:50.622Z,5.57
2018-12-27T18:22:17.123Z,6.63
2018-12-27T18:24:43.580Z,6.30
2018-12-27T18:27:10.033Z,6.23
2018-12-27T18:29:36.385Z,5.50
2018-12-27T18:32:02.734Z,5.60
2018-12-27T18:34:29.269Z,5.93
2018-12-27T18:36:55.638Z,5.87
2018-12-27T18:39:22.022Z,5.30
2018-12-27T18:41:48.378Z,4.80
2018-12-27T18:44:14.863Z,6.33
2018-12-27T18:46:41.326Z,6.00
2018-12-27T18:49:08.344Z,4.70
2018-12-27T18:51:34.774Z,6.43
2018-12-27T18:54:01.230Z,4.73
2018-12-27T18:56:28.386Z,4.87
2018-12-27T18:58:54.636Z,4.87
2018-12-27T19:01:21.082Z,5.10
2018-12-27T19:03:47.658Z,7.27
2018-12-27T19:06:14.130Z,4.93
2018-12-27T19:08:40.491Z,4.93
2018-12-27T19:11:44.205Z,5.33
2018-12-27T19:14:10.546Z,6.60
2018-12-27T19:16:36.998Z,6.33
2018-12-27T19:19:03.530Z,5.30
2018-12-27T19:21:30.886Z,5.80
2018-12-27T19:23:57.282Z,5.67
2018-12-27T19:26:23.776Z,6.17
2018-12-27T19:28:50.351Z,4.97
2018-12-27T19:31:16.684Z,6.57
2018-12-27T19:33:43.254Z,5.00
2018-12-27T19:36:09.498Z,6.40
2018-12-27T19:38:35.749Z,5.03
2018-12-27T19:41:02.482Z,6.10
2018-12-27T19:43:28.998Z,5.03
2018-12-27T19:45:55.433Z,4.60
2018-12-27T19:48:22.171Z,4.40
2018-12-27T19:50:48.513Z,5.93
2018-12-27T19:53:14.809Z,5.70
2018-12-27T19:55:41.161Z,4.87
2018-12-27T19:58:07.612Z,5.00
2018-12-27T20:00:33.954Z,5.53
2018-12-27T20:03:00.651Z,4.63
2018-12-27T20:05:27.081Z,6.27
2018-12-27T20:07:59.200Z,5.67
2018-12-27T20:10:21.998Z,4.70
2018-12-27T20:12:48.450Z,4.67
2018-12-27T20:15:14.903Z,6.30
2018-12-27T20:17:41.409Z,6.37
2018-12-27T20:20:07.857Z,5.17
2018-12-27T20:22:34.226Z,5.90
2018-12-27T20:25:00.686Z,6.13
2018-12-27T20:27:27.126Z,5.47
2018-12-27T20:29:53.878Z,6.60
2018-12-27T20:32:20.600Z,5.50
2018-12-27T20:34:47.034Z,4.93
2018-12-27T20:37:13.598Z,6.03
2018-12-27T20:39:40.162Z,6.30
2018-12-27T20:42:06.614Z,6.13
2018-12-27T20:44:33.059Z,5.03
2018-12-27T20:46:59.630Z,5.63
2018-12-27T20:49:25.969Z,8.00
2018-12-27T20:51:52.585Z,6.67
2018-12-27T20:54:19.186Z,6.67
2018-12-27T20:56:45.550Z,7.67
2018-12-27T20:59:11.926Z,6.20
2018-12-27T21:01:38.393Z,5.83
2018-12-27T21:04:07.485Z,6.07
2018-12-27T21:06:34.002Z,6.03
2018-12-27T21:09:00.455Z,7.13
2018-12-27T21:11:26.895Z,7.23
2018-12-27T21:13:53.422Z,7.20
2018-12-27T21:16:21.617Z,6.90
2018-12-27T21:18:48.011Z,6.83
2018-12-27T21:21:14.370Z,8.47
2018-12-27T21:23:41.040Z,7.23
2018-12-27T21:26:07.390Z,9.50
2018-12-27T21:28:33.742Z,8.63
2018-12-27T21:31:00.608Z,9.00
2018-12-27T21:33:26.947Z,9.13
2018-12-27T21:35:53.310Z,8.00
2018-12-27T21:38:21.567Z,8.77
2018-12-27T21:40:48.150Z,8.33
2018-12-27T21:43:14.594Z,7.93
2018-12-27T21:45:41.364Z,9.03
2018-12-27T21:48:07.806Z,9.53
2018-12-27T21:50:34.239Z,9.40
2018-12-27T21:53:00.849Z,7.70
2018-12-27T21:55:27.186Z,8.07
2018-12-27T21:57:53.649Z,7.77
2018-12-27T22:00:20.411Z,8.40
2018-12-27T22:02:46.662Z,8.83
2018-12-27T22:05:13.050Z,9.93
2018-12-27T22:07:39.618Z,7.70
2018-12-27T22:10:06.357Z,6.80
2018-12-27T22:12:32.722Z,6.83
2018-12-27T22:14:59.390Z,7.50
2018-12-27T22:17:25.645Z,8.03
2018-12-27T22:19:52.098Z,8.20
2018-12-27T22:22:18.453Z,8.43
2018-12-27T22:24:44.849Z,7.43
2018-12-27T22:27:11.319Z,8.33
2018-12-27T22:29:37.882Z,7.60
2018-12-27T22:32:04.537Z,8.03
2018-12-27T22:34:30.893Z,8.93
2018-12-27T22:36:57.720Z,7.50
2018-12-27T22:39:24.206Z,9.30
2018-12-27T22:41:50.563Z,8.60
2018-12-27T22:44:17.041Z,8.63
2018-12-27T22:46:43.326Z,8.60
2018-12-27T22:49:09.778Z,10.43
2018-12-27T22:51:36.438Z,8.97
2018-12-27T22:54:02.798Z,7.53
2018-12-27T22:56:29.305Z,10.27
2018-12-27T22:58:55.974Z,8.40
2018-12-27T23:01:22.433Z,7.70
2018-12-27T23:03:48.794Z,7.27
2018-12-27T23:06:15.382Z,10.57
2018-12-27T23:08:43.189Z,8.77
2018-12-27T23:11:09.886Z,9.90
2018-12-27T23:13:36.367Z,8.93
2018-12-27T23:16:02.880Z,8.63
2018-12-27T23:18:29.062Z,8.57
2018-12-27T23:20:55.625Z,8.30
2018-12-27T23:23:21.973Z,9.03
2018-12-27T23:25:48.430Z,8.13
2018-12-27T23:28:15.106Z,8.53
2018-12-27T23:30:41.577Z,10.77
2018-12-27T23:33:08.333Z,8.70
2018-12-27T23:35:34.795Z,8.33
2018-12-27T23:38:01.177Z,9.20
2018-12-27T23:40:27.627Z,7.67
2018-12-27T23:42:54.198Z,7.90
2018-12-27T23:45:20.634Z,8.60
2018-12-27T23:47:47.083Z,8.77
2018-12-27T23:50:13.747Z,7.30
2018-12-27T23:52:40.125Z,7.13
2018-12-27T23:55:06.626Z,6.93
2018-12-27T23:57:33.139Z,9.03
2018-12-27T23:59:59.482Z,7.37
